createdAt,value
2022-08-05T00:01:52.084Z,6.40
2022-08-05T00:04:21.205Z,11.30
2022-08-05T00:06:51.772Z,8.50
2022-08-05T00:09:20.506Z,7.40
2022-08-05T00:11:55.769Z,8.60
2022-08-05T00:14:31.450Z,9.70
2022-08-05T00:17:02.053Z,10.00
2022-08-05T00:19:33.263Z,11.10
2022-08-05T00:22:04.521Z,11.40
2022-08-05T00:24:32.691Z,9.00
2022-08-05T00:27:04.804Z,9.10
2022-08-05T00:29:38.655Z,8.80
2022-08-05T00:32:12.301Z,9.50
2022-08-05T00:35:04.623Z,7.70
2022-08-05T00:37:52.843Z,9.70
2022-08-05T00:40:28.002Z,9.00
2022-08-05T00:43:00.237Z,8.60
2022-08-05T00:45:38.254Z,9.00
2022-08-05T00:48:09.526Z,9.50
2022-08-05T00:50:42.068Z,14.40
2022-08-05T00:54:01.187Z,9.50
2022-08-05T00:56:05.727Z,11.60
2022-08-05T00:58:37.359Z,8.30
2022-08-05T01:01:08.916Z,11.40
2022-08-05T01:03:40.422Z,9.00
2022-08-05T01:06:13.977Z,8.80
2022-08-05T01:08:47.155Z,7.60
2022-08-05T01:11:33.438Z,9.20
2022-08-05T01:14:27.735Z,8.30
2022-08-05T01:17:07.155Z,7.90
2022-08-05T01:20:02.424Z,9.30
2022-08-05T01:22:46.884Z,9.30
2022-08-05T01:25:41.021Z,6.70
2022-08-05T01:28:28.612Z,8.60
2022-08-05T01:31:12.603Z,9.40
2022-08-05T01:34:01.745Z,6.90
2022-08-05T01:36:36.832Z,9.90
2022-08-05T01:39:13.858Z,8.10
2022-08-05T01:41:44.472Z,8.60
2022-08-05T01:44:15.816Z,9.60
2022-08-05T01:46:46.738Z,9.90
2022-08-05T01:49:23.753Z,7.90
2022-08-05T01:51:59.351Z,6.40
2022-08-05T01:54:46.282Z,6.90
2022-08-05T01:58:10.465Z,6.70
2022-08-05T02:00:12.905Z,8.90
2022-08-05T02:02:53.624Z,8.70
2022-08-05T02:05:29.842Z,7.10
2022-08-05T02:08:01.331Z,6.60
2022-08-05T02:10:36.679Z,10.10
2022-08-05T02:13:17.951Z,9.80
2022-08-05T02:15:55.230Z,7.50
2022-08-05T02:18:37.883Z,8.40
2022-08-05T02:21:15.649Z,10.30
2022-08-05T02:23:48.681Z,8.60
2022-08-05T02:26:26.622Z,6.40
2022-08-05T02:28:58.312Z,6.60
2022-08-05T02:31:34.991Z,8.50
2022-08-05T02:34:09.318Z,11.20
2022-08-05T02:36:46.193Z,7.90
2022-08-05T02:39:21.565Z,8.10
2022-08-05T02:42:00.940Z,9.20
2022-08-05T02:44:32.877Z,7.40
2022-08-05T02:47:03.228Z,8.50
2022-08-05T02:49:37.891Z,6.40
2022-08-05T02:52:29.530Z,9.50
2022-08-05T02:55:01.608Z,8.20
2022-08-05T02:58:09.235Z,6.50
2022-08-05T03:00:25.483Z,10.20
2022-08-05T03:02:57.739Z,9.30
2022-08-05T03:06:56.335Z,12.00
2022-08-05T03:08:16.552Z,8.60
2022-08-05T03:11:55.692Z,10.10
2022-08-05T03:13:51.072Z,13.30
2022-08-05T03:16:27.578Z,13.70
2022-08-05T03:18:56.132Z,11.50
2022-08-05T03:21:24.006Z,15.90
2022-08-05T03:23:58.835Z,12.90
2022-08-05T03:26:32.130Z,17.70
2022-08-05T03:29:01.009Z,15.00
2022-08-05T03:31:57.262Z,12.10
2022-08-05T03:34:19.338Z,11.80
2022-08-05T03:36:52.599Z,14.50
2022-08-05T03:39:26.987Z,10.40
2022-08-05T03:41:56.955Z,12.90
2022-08-05T03:44:25.834Z,11.90
2022-08-05T03:46:57.334Z,9.90
2022-08-05T03:49:31.197Z,10.50
2022-08-05T03:52:48.708Z,7.90
2022-08-05T03:56:04.361Z,11.40
2022-08-05T03:58:12.299Z,10.20
2022-08-05T04:00:42.088Z,10.10
2022-08-05T04:03:26.764Z,9.70
2022-08-05T04:05:59.074Z,7.80
2022-08-05T04:08:36.399Z,6.50
2022-08-05T04:11:08.658Z,6.90
2022-08-05T04:13:50.170Z,6.90
2022-08-05T04:16:25.445Z,7.80
2022-08-05T04:19:00.424Z,8.70
2022-08-05T04:22:05.881Z,10.10
2022-08-05T04:24:18.864Z,7.30
2022-08-05T04:26:47.895Z,8.30
2022-08-05T04:29:15.958Z,9.50
2022-08-05T04:31:43.985Z,9.20
2022-08-05T04:34:31.189Z,9.90
2022-08-05T04:37:01.034Z,9.70
2022-08-05T04:39:32.429Z,9.90
2022-08-05T04:42:03.985Z,9.40
2022-08-05T04:44:31.986Z,9.70
2022-08-05T04:47:00.145Z,11.60
2022-08-05T04:50:03.098Z,12.20
2022-08-05T04:52:28.762Z,10.30
2022-08-05T04:54:57.772Z,10.10
2022-08-05T04:57:29.298Z,10.30
2022-08-05T05:00:06.848Z,7.20
2022-08-05T05:02:41.861Z,9.40
2022-08-05T05:05:26.642Z,8.40
2022-08-05T05:08:30.301Z,7.40
2022-08-05T05:10:58.613Z,7.10
2022-08-05T05:13:32.325Z,6.70
2022-08-05T05:16:11.506Z,10.20
2022-08-05T05:18:39.653Z,7.00
2022-08-05T05:21:07.640Z,7.00
2022-08-05T05:23:39.127Z,6.80
2022-08-05T05:26:28.628Z,7.60
2022-08-05T05:29:02.394Z,6.00
2022-08-05T05:34:02.624Z,5.60
2022-08-05T05:36:32.228Z,5.50
2022-08-05T05:39:00.452Z,5.80
2022-08-05T05:41:40.732Z,6.60
2022-08-05T05:44:35.949Z,7.50
2022-08-05T05:47:04.092Z,6.60
2022-08-05T05:49:35.805Z,4.50
2022-08-05T05:52:08.775Z,7.20
2022-08-05T05:54:50.495Z,6.80
2022-08-05T05:57:20.276Z,6.00
2022-08-05T05:59:48.977Z,5.10
2022-08-05T06:02:32.422Z,3.80
2022-08-05T06:05:10.470Z,7.30
2022-08-05T06:08:01.272Z,6.00
2022-08-05T06:10:36.482Z,6.10
2022-08-05T06:13:05.430Z,6.00
2022-08-05T06:16:29.348Z,4.80
2022-08-05T06:18:31.436Z,7.40
2022-08-05T06:21:00.832Z,4.90
2022-08-05T06:23:32.100Z,4.60
2022-08-05T06:26:21.537Z,5.60
2022-08-05T06:28:51.996Z,4.30
2022-08-05T06:31:22.374Z,4.90
2022-08-05T06:34:07.319Z,5.80
2022-08-05T06:36:56.778Z,4.70
2022-08-05T06:39:26.914Z,4.10
2022-08-05T06:42:03.925Z,3.90
2022-08-05T06:44:32.366Z,4.90
2022-08-05T06:47:02.230Z,4.50
2022-08-05T06:50:00.480Z,3.60
2022-08-05T06:52:37.120Z,3.80
2022-08-05T06:55:07.515Z,6.90
2022-08-05T06:57:57.837Z,5.00
2022-08-05T07:00:24.884Z,4.00
2022-08-05T07:02:54.333Z,4.80
2022-08-05T07:05:36.991Z,7.30
2022-08-05T07:08:10.967Z,5.50
2022-08-05T07:10:53.352Z,3.60
2022-08-05T07:13:57.611Z,3.30
2022-08-05T07:18:00.996Z,6.20
2022-08-05T07:20:10.927Z,3.70
2022-08-05T07:22:28.943Z,3.40
2022-08-05T07:24:59.358Z,3.80
2022-08-05T07:27:57.770Z,6.00
2022-08-05T07:30:23.864Z,3.90
2022-08-05T07:32:56.488Z,4.40
2022-08-05T07:35:55.724Z,4.80
2022-08-05T07:38:32.761Z,3.10
2022-08-05T07:42:08.288Z,2.90
2022-08-05T07:43:57.049Z,2.60
2022-08-05T07:46:27.032Z,4.20
2022-08-05T07:49:02.710Z,3.50
2022-08-05T07:51:37.079Z,5.20
2022-08-05T07:54:10.155Z,5.10
2022-08-05T07:57:13.282Z,2.60
2022-08-05T07:59:38.566Z,4.00
2022-08-05T08:02:16.483Z,3.80
2022-08-05T08:04:47.697Z,6.20
2022-08-05T08:07:22.678Z,3.00
2022-08-05T08:09:54.892Z,3.50
2022-08-05T08:12:35.036Z,4.30
2022-08-05T08:15:15.636Z,5.00
2022-08-05T08:17:49.672Z,3.50
2022-08-05T08:20:44.466Z,3.30
2022-08-05T08:24:02.164Z,3.20
2022-08-05T08:26:04.637Z,5.90
2022-08-05T08:28:37.035Z,4.40
2022-08-05T08:31:14.587Z,3.70
2022-08-05T08:33:45.889Z,5.80
2022-08-05T08:36:47.553Z,3.00
2022-08-05T08:39:03.101Z,3.20
2022-08-05T08:41:52.028Z,4.30
2022-08-05T08:45:24.938Z,3.20
2022-08-05T08:47:47.825Z,3.20
2022-08-05T08:50:31.199Z,3.20
2022-08-05T08:53:11.802Z,4.30
2022-08-05T08:56:02.666Z,4.10
2022-08-05T08:58:37.562Z,6.00
2022-08-05T09:01:15.863Z,3.70
2022-08-05T09:03:55.650Z,5.20
2022-08-05T09:06:29.733Z,3.70
2022-08-05T09:09:01.400Z,4.40
2022-08-05T09:11:52.730Z,6.90
2022-08-05T09:14:56.298Z,4.50
2022-08-05T09:17:42.442Z,3.80
2022-08-05T09:20:02.443Z,2.40
2022-08-05T09:23:18.667Z,3.40
2022-08-05T09:26:02.193Z,5.40
2022-08-05T09:28:34.352Z,3.40
2022-08-05T09:31:44.208Z,4.30
2022-08-05T09:34:01.428Z,2.40
2022-08-05T09:36:38.440Z,3.50
2022-08-05T09:39:27.629Z,2.70
2022-08-05T09:42:13.641Z,2.80
2022-08-05T09:44:56.728Z,2.60
2022-08-05T09:47:36.565Z,5.10
2022-08-05T09:50:37.392Z,4.50
2022-08-05T09:53:07.149Z,3.90
2022-08-05T09:55:57.335Z,2.30
2022-08-05T09:58:26.476Z,3.00
2022-08-05T10:01:13.446Z,3.60
2022-08-05T10:04:10.652Z,3.00
2022-08-05T10:06:40.791Z,4.60
2022-08-05T10:09:27.238Z,4.70
2022-08-05T10:12:18.933Z,4.80
2022-08-05T10:15:17.089Z,2.70
2022-08-05T10:18:10.658Z,3.40
2022-08-05T10:20:47.665Z,5.30
2022-08-05T10:23:22.171Z,2.20
2022-08-05T10:26:14.062Z,2.70
2022-08-05T10:28:44.968Z,2.30
2022-08-05T10:32:48.096Z,3.40
2022-08-05T10:34:09.546Z,4.20
2022-08-05T10:36:39.765Z,5.20
2022-08-05T10:39:15.186Z,4.30
2022-08-05T10:42:00.554Z,3.00
2022-08-05T10:44:31.474Z,4.10
2022-08-05T10:46:59.579Z,2.60
2022-08-05T10:49:32.949Z,3.60
2022-08-05T10:52:05.543Z,3.10
2022-08-05T10:55:16.046Z,6.40
2022-08-05T10:57:47.148Z,3.70
2022-08-05T11:00:24.278Z,4.70
2022-08-05T11:03:25.314Z,4.50
2022-08-05T11:06:08.293Z,5.20
2022-08-05T11:08:39.254Z,3.30
2022-08-05T11:11:44.831Z,5.00
2022-08-05T11:14:57.683Z,4.30
2022-08-05T11:17:57.696Z,3.70
2022-08-05T11:20:41.646Z,4.20
2022-08-05T11:24:05.602Z,4.00
2022-08-05T11:26:49.557Z,2.70
2022-08-05T11:29:59.309Z,3.50
2022-08-05T11:32:30.190Z,5.30
2022-08-05T11:34:58.126Z,3.00
2022-08-05T11:38:30.134Z,2.90
2022-08-05T11:41:03.569Z,4.50
2022-08-05T11:44:04.870Z,2.80
2022-08-05T11:47:10.329Z,3.30
2022-08-05T11:49:29.438Z,2.50
2022-08-05T11:52:11.149Z,3.30
2022-08-05T11:54:43.401Z,3.90
2022-08-05T11:57:25.363Z,2.80
2022-08-05T11:59:55.284Z,3.10
2022-08-05T12:02:33.106Z,3.50
2022-08-05T12:05:08.154Z,3.20
2022-08-05T12:08:03.609Z,2.90
2022-08-05T12:10:45.721Z,4.30
2022-08-05T12:13:28.172Z,4.60
2022-08-05T12:16:14.133Z,6.00
2022-08-05T12:18:52.202Z,5.00
2022-08-05T12:21:31.828Z,3.50
2022-08-05T12:24:08.817Z,3.40
2022-08-05T12:26:38.145Z,5.70
2022-08-05T12:29:26.704Z,5.70
2022-08-05T12:31:56.841Z,3.30
2022-08-05T12:34:31.595Z,3.30
2022-08-05T12:37:17.040Z,5.30
2022-08-05T12:39:53.949Z,5.80
2022-08-05T12:42:25.264Z,4.60
2022-08-05T12:45:02.304Z,3.90
2022-08-05T12:47:31.198Z,4.10
2022-08-05T12:50:04.853Z,5.00
2022-08-05T12:52:42.287Z,5.20
2022-08-05T12:55:22.457Z,3.50
2022-08-05T12:58:51.432Z,4.50
2022-08-05T13:02:00.627Z,4.50
2022-08-05T13:03:41.475Z,5.50
2022-08-05T13:06:16.449Z,4.40
2022-08-05T13:08:52.353Z,9.90
2022-08-05T13:12:01.139Z,3.60
2022-08-05T13:14:19.355Z,5.30
2022-08-05T13:16:58.209Z,7.50
2022-08-05T13:19:50.922Z,3.60
2022-08-05T13:22:29.180Z,3.30
2022-08-05T13:25:05.159Z,3.30
2022-08-05T13:27:38.266Z,3.80
2022-08-05T13:30:33.987Z,5.60
2022-08-05T13:33:00.872Z,5.20
2022-08-05T13:35:43.100Z,3.40
2022-08-05T13:38:31.206Z,3.70
2022-08-05T13:41:04.351Z,6.50
2022-08-05T13:43:43.557Z,6.30
2022-08-05T13:46:37.940Z,5.90
2022-08-05T13:49:10.215Z,4.00
2022-08-05T13:51:46.332Z,3.70
2022-08-05T13:54:24.822Z,3.70
2022-08-05T13:56:56.208Z,3.70
2022-08-05T13:59:26.889Z,3.70
2022-08-05T14:01:59.850Z,3.60
2022-08-05T14:04:51.570Z,5.10
2022-08-05T14:08:00.441Z,6.40
2022-08-05T14:10:28.793Z,5.60
2022-08-05T14:12:59.829Z,3.90
2022-08-05T14:16:09.044Z,4.00
2022-08-05T14:18:18.515Z,3.70
2022-08-05T14:20:54.498Z,3.50
2022-08-05T14:23:24.834Z,3.90
2022-08-05T14:25:58.604Z,3.90
2022-08-05T14:28:29.826Z,5.90
2022-08-05T14:31:00.899Z,4.20
2022-08-05T14:33:57.067Z,4.80
2022-08-05T14:36:21.704Z,5.90
2022-08-05T14:38:51.601Z,6.80
2022-08-05T14:41:20.363Z,3.90
2022-08-05T14:44:01.957Z,4.50
2022-08-05T14:46:37.822Z,3.90
2022-08-05T14:49:08.190Z,3.80
2022-08-05T14:51:42.830Z,3.50
2022-08-05T14:54:28.990Z,6.20
2022-08-05T14:57:00.606Z,6.10
2022-08-05T14:59:35.856Z,3.60
2022-08-05T15:02:15.964Z,4.80
2022-08-05T15:04:47.615Z,3.60
2022-08-05T15:08:08.765Z,6.60
2022-08-05T15:10:05.408Z,5.40
2022-08-05T15:12:59.873Z,3.40
2022-08-05T15:15:55.137Z,6.70
2022-08-05T15:18:17.311Z,4.90
2022-08-05T15:20:46.041Z,3.80
2022-08-05T15:23:14.442Z,5.00
2022-08-05T15:25:52.180Z,6.10
2022-08-05T15:28:24.463Z,8.40
2022-08-05T15:30:56.716Z,4.10
2022-08-05T15:34:05.838Z,4.20
2022-08-05T15:36:17.519Z,8.60
2022-08-05T15:38:58.298Z,5.00
2022-08-05T15:41:57.413Z,4.20
2022-08-05T15:44:30.130Z,4.50
2022-08-05T15:47:01.814Z,3.70
2022-08-05T15:49:40.845Z,4.90
2022-08-05T15:52:51.549Z,5.10
2022-08-05T15:55:15.975Z,5.50
2022-08-05T15:57:45.269Z,5.60
2022-08-05T16:00:16.880Z,4.70
2022-08-05T16:02:54.769Z,4.50
2022-08-05T16:05:23.021Z,4.80
2022-08-05T16:07:57.198Z,4.00
2022-08-05T16:10:26.830Z,7.50
2022-08-05T16:12:55.887Z,6.40
2022-08-05T16:15:24.677Z,4.10
2022-08-05T16:18:00.366Z,5.40
2022-08-05T16:20:28.406Z,4.70
2022-08-05T16:22:57.493Z,4.40
2022-08-05T16:25:32.189Z,5.50
2022-08-05T16:28:05.446Z,6.30
2022-08-05T16:30:36.128Z,5.50
2022-08-05T16:33:04.932Z,5.10
2022-08-05T16:35:33.783Z,5.20
2022-08-05T16:38:24.510Z,5.40
2022-08-05T16:41:01.276Z,6.90
2022-08-05T16:43:32.720Z,4.70
2022-08-05T16:46:23.486Z,5.20
2022-08-05T16:48:51.697Z,7.90
2022-08-05T16:51:20.825Z,6.70
2022-08-05T16:54:06.329Z,4.50
2022-08-05T16:56:40.446Z,5.70
2022-08-05T16:59:10.597Z,7.00
2022-08-05T17:01:54.327Z,4.60
2022-08-05T17:04:28.498Z,4.90
2022-08-05T17:07:01.814Z,5.60
2022-08-05T17:09:38.869Z,6.90
2022-08-05T17:12:22.712Z,6.10
2022-08-05T17:15:09.313Z,6.70
2022-08-05T17:17:42.083Z,4.70
2022-08-05T17:20:11.555Z,6.40
2022-08-05T17:22:43.027Z,7.60
2022-08-05T17:25:33.408Z,5.70
2022-08-05T17:28:01.337Z,5.40
2022-08-05T17:30:29.400Z,5.20
2022-08-05T17:32:57.354Z,7.20
2022-08-05T17:35:25.311Z,5.40
2022-08-05T17:38:04.937Z,5.10
2022-08-05T17:40:33.175Z,5.80
2022-08-05T17:43:02.653Z,4.50
2022-08-05T17:45:38.630Z,5.90
2022-08-05T17:48:08.336Z,5.30
2022-08-05T17:50:36.436Z,8.50
2022-08-05T17:53:08.500Z,5.90
2022-08-05T17:55:39.999Z,5.20
2022-08-05T17:58:11.231Z,8.90
2022-08-05T18:00:45.228Z,4.90
2022-08-05T18:03:56.268Z,8.40
2022-08-05T18:06:12.369Z,7.50
2022-08-05T18:08:52.641Z,5.10
2022-08-05T18:11:24.113Z,5.10
2022-08-05T18:14:07.418Z,6.40
2022-08-05T18:16:51.529Z,8.80
2022-08-05T18:19:22.730Z,6.20
2022-08-05T18:22:07.201Z,5.80
2022-08-05T18:24:39.361Z,9.70
2022-08-05T18:27:12.931Z,5.80
2022-08-05T18:29:53.978Z,5.60
2022-08-05T18:32:28.179Z,5.80
2022-08-05T18:34:58.238Z,8.60
2022-08-05T18:37:34.729Z,7.20
2022-08-05T18:41:50.793Z,6.50
2022-08-05T18:42:59.030Z,6.00
2022-08-05T18:45:41.392Z,9.10
2022-08-05T18:48:11.447Z,10.80
2022-08-05T18:52:02.766Z,6.60
2022-08-05T18:53:52.523Z,8.90
2022-08-05T18:56:21.925Z,9.10
2022-08-05T18:58:55.005Z,7.80
2022-08-05T19:01:47.263Z,8.60
2022-08-05T19:04:24.043Z,10.50
2022-08-05T19:06:53.604Z,7.30
2022-08-05T19:09:22.137Z,7.50
2022-08-05T19:12:01.140Z,8.00
2022-08-05T19:14:53.450Z,9.30
2022-08-05T19:17:19.801Z,7.10
2022-08-05T19:19:50.206Z,10.90
2022-08-05T19:22:18.892Z,8.40
2022-08-05T19:24:56.503Z,11.90
2022-08-05T19:27:30.198Z,11.10
2022-08-05T19:29:59.031Z,7.50
2022-08-05T19:32:27.800Z,8.40
2022-08-05T19:34:59.058Z,9.70
2022-08-05T19:38:04.101Z,10.50
2022-08-05T19:40:24.259Z,8.30
2022-08-05T19:43:05.053Z,9.80
2022-08-05T19:45:36.790Z,8.00
2022-08-05T19:48:06.377Z,12.00
2022-08-05T19:50:35.340Z,8.60
2022-08-05T19:53:09.425Z,8.60
2022-08-05T19:56:15.522Z,8.50
2022-08-05T19:59:21.357Z,9.80
2022-08-05T20:01:52.737Z,8.30
2022-08-05T20:04:21.563Z,9.30
2022-08-05T20:06:51.979Z,9.40
2022-08-05T20:09:20.297Z,8.20
2022-08-05T20:11:48.526Z,9.30
2022-08-05T20:14:26.579Z,10.30
2022-08-05T20:16:56.337Z,9.40
2022-08-05T20:19:25.486Z,9.00
2022-08-05T20:22:04.258Z,10.60
2022-08-05T20:24:34.595Z,13.40
2022-08-05T20:27:03.364Z,8.10
2022-08-05T20:29:39.600Z,11.10
2022-08-05T20:32:07.993Z,9.60
2022-08-05T20:34:38.400Z,9.20
2022-08-05T20:37:06.473Z,11.90
2022-08-05T20:39:46.167Z,9.00
2022-08-05T20:42:21.592Z,11.40
2022-08-05T20:44:50.038Z,11.20
2022-08-05T20:47:18.531Z,11.70
2022-08-05T20:49:47.224Z,8.80
2022-08-05T20:52:19.380Z,12.70
2022-08-05T20:55:55.225Z,9.30
2022-08-05T20:57:43.319Z,12.20
2022-08-05T21:00:41.479Z,10.80
2022-08-05T21:03:07.301Z,10.00
2022-08-05T21:05:54.034Z,10.50
2022-08-05T21:08:32.952Z,10.00
2022-08-05T21:11:12.294Z,16.90
2022-08-05T21:13:47.945Z,11.00
2022-08-05T21:16:29.157Z,9.60
2022-08-05T21:19:01.227Z,11.20
2022-08-05T21:21:39.267Z,14.00
2022-08-05T21:24:15.265Z,9.90
2022-08-05T21:26:53.325Z,14.00
2022-08-05T21:29:32.125Z,10.10
2022-08-05T21:32:03.632Z,10.40
2022-08-05T21:34:33.089Z,11.70
2022-08-05T21:37:05.676Z,10.70
2022-08-05T21:39:34.655Z,11.00
2022-08-05T21:42:06.923Z,12.50
2022-08-05T21:44:54.896Z,10.60
2022-08-05T21:47:54.777Z,10.50
2022-08-05T21:50:16.492Z,11.10
2022-08-05T21:52:47.364Z,12.30
2022-08-05T21:55:17.649Z,9.30
2022-08-05T21:58:06.487Z,13.60
2022-08-05T22:00:34.788Z,10.90
2022-08-05T22:03:04.071Z,11.20
2022-08-05T22:05:48.373Z,11.50
2022-08-05T22:08:22.308Z,13.80
2022-08-05T22:10:53.605Z,10.80
2022-08-05T22:14:34.342Z,12.90
2022-08-05T22:16:32.129Z,12.20
2022-08-05T22:18:58.645Z,10.90
2022-08-05T22:21:27.092Z,11.60
2022-08-05T22:24:40.593Z,11.00
2022-08-05T22:27:22.133Z,12.10
2022-08-05T22:29:50.348Z,11.80
2022-08-05T22:32:23.071Z,11.40
2022-08-05T22:34:52.199Z,11.40
2022-08-05T22:37:20.872Z,11.50
2022-08-05T22:39:50.410Z,11.50
2022-08-05T22:42:25.299Z,12.20
2022-08-05T22:44:56.946Z,11.60
2022-08-05T22:47:30.055Z,11.60
2022-08-05T22:50:21.548Z,11.60
2022-08-05T22:52:52.408Z,11.10
2022-08-05T22:55:23.085Z,12.30
2022-08-05T22:57:53.081Z,11.30
2022-08-05T23:00:23.432Z,15.40
2022-08-05T23:02:53.764Z,12.50
2022-08-05T23:05:23.188Z,12.80
2022-08-05T23:07:52.560Z,12.10
2022-08-05T23:10:23.840Z,12.40
2022-08-05T23:12:54.391Z,11.10
2022-08-05T23:15:37.726Z,14.50
2022-08-05T23:18:15.998Z,12.30
2022-08-05T23:20:44.419Z,12.50
2022-08-05T23:23:13.098Z,11.60
2022-08-05T23:25:54.795Z,11.60
2022-08-05T23:28:28.852Z,13.70
2022-08-05T23:31:16.433Z,13.90
2022-08-05T23:34:04.030Z,14.20
2022-08-05T23:36:40.054Z,12.30
2022-08-05T23:39:32.052Z,12.30
2022-08-05T23:42:08.673Z,12.10
2022-08-05T23:44:42.888Z,12.90
2022-08-05T23:47:15.589Z,12.20
2022-08-05T23:49:45.704Z,11.60
2022-08-05T23:52:26.695Z,13.30
2022-08-05T23:54:58.079Z,12.50
2022-08-05T23:57:28.915Z,12.40
